createdAt,value
2023-04-19T00:02:29.114Z,90.47
2023-04-19T00:05:22.353Z,90.52
2023-04-19T00:07:51.403Z,90.70
2023-04-19T00:10:20.288Z,90.60
2023-04-19T00:12:48.676Z,90.69
2023-04-19T00:15:17.212Z,90.73
2023-04-19T00:17:45.744Z,90.78
2023-04-19T00:20:14.235Z,90.94
2023-04-19T00:22:42.640Z,91.00
2023-04-19T00:25:11.188Z,91.07
2023-04-19T00:27:39.794Z,91.32
2023-04-19T00:30:08.694Z,91.28
2023-04-19T00:32:37.260Z,91.21
2023-04-19T00:35:06.377Z,91.00
2023-04-19T00:37:34.853Z,90.86
2023-04-19T00:40:04.657Z,90.82
2023-04-19T00:42:33.059Z,91.00
2023-04-19T00:45:01.456Z,91.16
2023-04-19T00:47:30.810Z,91.17
2023-04-19T00:50:05.117Z,91.15
2023-04-19T01:02:14.845Z,91.25
2023-04-19T01:04:44.159Z,91.12
2023-04-19T01:07:13.211Z,90.98
2023-04-19T01:09:44.173Z,91.12
2023-04-19T01:12:12.687Z,91.16
2023-04-19T01:14:41.523Z,91.26
2023-04-19T01:17:10.201Z,91.28
2023-04-19T01:19:38.729Z,91.30
2023-04-19T01:22:09.440Z,91.24
2023-04-19T01:24:37.837Z,91.19
2023-04-19T01:27:07.018Z,91.06
2023-04-19T01:29:35.478Z,90.98
2023-04-19T01:32:04.020Z,91.03
2023-04-19T01:34:32.329Z,91.01
2023-04-19T01:37:00.924Z,91.07
2023-04-19T01:39:30.224Z,90.99
2023-04-19T01:41:58.607Z,91.04
2023-04-19T01:44:27.117Z,90.83
2023-04-19T01:47:25.090Z,90.60
2023-04-19T01:49:53.596Z,90.64
2023-04-19T02:07:50.769Z,89.29
2023-04-19T02:10:19.148Z,89.08
2023-04-19T02:12:47.533Z,88.97
2023-04-19T02:15:15.866Z,88.84
2023-04-19T02:17:46.634Z,88.48
2023-04-19T02:20:15.027Z,88.22
2023-04-19T02:22:44.033Z,87.97
2023-04-19T02:25:12.682Z,87.52
2023-04-19T02:27:41.086Z,87.35
2023-04-19T02:30:10.172Z,87.26
2023-04-19T02:32:38.664Z,87.21
2023-04-19T02:35:07.476Z,87.39
2023-04-19T02:37:35.843Z,87.31
2023-04-19T02:40:05.546Z,87.28
2023-04-19T02:42:33.909Z,87.11
2023-04-19T02:45:02.313Z,86.96
2023-04-19T02:47:30.730Z,86.70
2023-04-19T02:50:00.517Z,86.45
2023-04-19T02:52:28.978Z,85.95
2023-04-19T02:54:57.378Z,85.55
2023-04-19T02:57:25.822Z,85.28
2023-04-19T02:59:54.167Z,84.91
2023-04-19T03:02:22.869Z,84.51
2023-04-19T03:04:53.066Z,84.44
2023-04-19T03:07:21.438Z,84.21
2023-04-19T03:09:49.792Z,84.12
2023-04-19T03:12:18.144Z,83.87
2023-04-19T03:14:46.529Z,83.76
2023-04-19T03:17:14.941Z,83.66
2023-04-19T03:19:43.268Z,83.44
2023-04-19T03:22:11.579Z,83.03
2023-04-19T03:24:40.024Z,82.87
2023-04-19T03:27:08.405Z,82.71
2023-04-19T03:29:36.801Z,82.59
2023-04-19T03:32:05.274Z,82.14
2023-04-19T03:34:33.700Z,82.08
2023-04-19T03:37:02.152Z,82.04
2023-04-19T03:39:30.604Z,81.99
2023-04-19T03:41:59.118Z,81.88
2023-04-19T03:44:27.553Z,81.53
2023-04-19T03:46:55.900Z,81.39
2023-04-19T03:49:24.288Z,81.27
2023-04-19T03:51:52.779Z,81.17
2023-04-19T03:54:21.209Z,81.10
2023-04-19T03:56:49.614Z,81.10
2023-04-19T03:59:17.971Z,80.92
2023-04-19T04:01:46.429Z,80.90
2023-04-19T04:04:15.121Z,81.26
2023-04-19T04:06:44.465Z,81.49
2023-04-19T04:09:12.804Z,81.70
2023-04-19T04:11:41.203Z,81.81
2023-04-19T04:14:09.569Z,81.80
2023-04-19T04:16:38.124Z,81.27
2023-04-19T04:19:07.311Z,81.25
2023-04-19T04:21:35.787Z,81.30
2023-04-19T04:24:04.633Z,81.06
2023-04-19T04:26:34.065Z,80.95
2023-04-19T04:29:03.082Z,80.97
2023-04-19T04:31:36.281Z,80.77
2023-04-19T04:34:04.814Z,80.75
2023-04-19T04:36:33.304Z,80.86
2023-04-19T04:39:02.001Z,80.73
2023-04-19T04:41:31.560Z,80.69
2023-04-19T04:44:12.099Z,80.93
2023-04-19T04:46:41.230Z,81.33
2023-04-19T04:49:09.605Z,81.79
2023-04-19T04:51:38.143Z,82.09
2023-04-19T04:54:06.485Z,82.62
2023-04-19T04:56:34.903Z,82.90
2023-04-19T04:59:03.379Z,83.35
2023-04-19T05:01:31.739Z,83.77
2023-04-19T05:04:00.913Z,84.14
2023-04-19T05:06:29.275Z,84.50
2023-04-19T05:08:57.639Z,84.84
2023-04-19T05:11:27.610Z,85.14
2023-04-19T05:14:23.413Z,85.56
2023-04-19T05:16:51.930Z,86.12
2023-04-19T05:19:21.103Z,86.36
2023-04-19T05:21:49.811Z,86.61
2023-04-19T05:24:20.006Z,86.76
2023-04-19T05:26:49.589Z,87.07
2023-04-19T05:29:18.495Z,87.30
2023-04-19T05:31:49.717Z,87.46
2023-04-19T05:34:22.457Z,87.78
2023-04-19T05:37:38.222Z,87.72
2023-04-19T05:40:10.332Z,87.83
2023-04-19T05:45:25.198Z,87.85
2023-04-19T05:47:54.369Z,87.66
2023-04-19T05:50:23.606Z,87.97
2023-04-19T05:52:52.967Z,88.13
2023-04-19T05:55:25.769Z,87.91
2023-04-19T05:57:54.557Z,87.77
2023-04-19T06:00:22.983Z,87.84
2023-04-19T06:02:51.499Z,87.77
2023-04-19T06:05:20.701Z,87.68
2023-04-19T06:07:55.366Z,87.75
2023-04-19T06:10:40.329Z,87.49
2023-04-19T06:13:18.578Z,87.34
2023-04-19T06:15:47.942Z,87.05
2023-04-19T06:18:19.299Z,86.90
2023-04-19T06:20:48.753Z,86.82
2023-04-19T06:24:05.158Z,86.90
2023-04-19T06:26:34.736Z,87.00
2023-04-19T06:29:03.303Z,86.50
2023-04-19T06:31:32.707Z,86.22
2023-04-19T06:34:25.935Z,86.28
2023-04-19T06:37:01.688Z,86.34
2023-04-19T06:39:31.181Z,85.98
2023-04-19T06:41:59.571Z,85.92
2023-04-19T06:44:32.481Z,86.07
2023-04-19T06:47:00.901Z,86.18
2023-04-19T06:49:52.546Z,86.50
2023-04-19T06:52:22.113Z,86.73
2023-04-19T06:54:51.750Z,86.59
2023-04-19T06:57:20.518Z,86.53
2023-04-19T06:59:54.830Z,86.26
2023-04-19T07:02:24.509Z,86.34
2023-04-19T07:04:53.323Z,86.31
2023-04-19T07:07:23.049Z,86.07
2023-04-19T07:09:51.456Z,85.77
2023-04-19T07:12:19.875Z,85.70
2023-04-19T07:14:48.342Z,86.29
2023-04-19T07:17:18.266Z,86.46
2023-04-19T07:19:49.046Z,86.37
2023-04-19T07:22:17.397Z,85.93
2023-04-19T07:24:45.854Z,85.62
2023-04-19T07:27:14.957Z,85.74
2023-04-19T07:29:43.448Z,85.82
2023-04-19T07:32:14.565Z,85.65
2023-04-19T07:34:43.687Z,85.35
2023-04-19T07:37:12.720Z,85.13
2023-04-19T07:39:41.489Z,85.23
2023-04-19T07:42:09.941Z,85.18
2023-04-19T07:44:38.424Z,85.34
2023-04-19T07:47:06.853Z,85.30
2023-04-19T07:49:35.687Z,85.40
2023-04-19T07:52:07.853Z,85.42
2023-04-19T07:54:38.923Z,85.52
2023-04-19T07:57:07.368Z,85.54
2023-04-19T07:59:36.193Z,85.29
2023-04-19T08:02:05.884Z,85.28
2023-04-19T08:04:34.934Z,84.92
2023-04-19T08:07:04.910Z,84.65
2023-04-19T08:09:34.650Z,84.56
2023-04-19T08:12:03.331Z,84.00
2023-04-19T08:14:40.459Z,83.41
2023-04-19T08:17:22.342Z,82.87
2023-04-19T08:19:54.781Z,82.40
2023-04-19T08:22:24.367Z,82.33
2023-04-19T08:24:53.475Z,82.36
2023-04-19T08:27:21.964Z,81.90
2023-04-19T08:29:50.452Z,82.07
2023-04-19T08:32:19.069Z,81.95
2023-04-19T08:34:47.614Z,82.22
2023-04-19T08:37:16.218Z,82.30
2023-04-19T08:39:44.543Z,82.49
2023-04-19T08:47:44.900Z,83.26
2023-04-19T08:50:33.387Z,83.43
2023-04-19T08:55:59.139Z,83.88
2023-04-19T08:58:52.043Z,84.63
2023-04-19T09:01:34.570Z,84.72
2023-04-19T09:04:34.714Z,84.76
2023-04-19T09:07:26.377Z,84.67
2023-04-19T09:10:14.538Z,84.81
2023-04-19T09:12:44.016Z,85.04
2023-04-19T09:15:35.194Z,84.83
2023-04-19T09:18:28.989Z,84.06
2023-04-19T09:21:29.782Z,83.82
2023-04-19T09:24:01.806Z,83.75
2023-04-19T09:26:36.591Z,83.50
2023-04-19T09:29:16.980Z,83.39
2023-04-19T09:32:06.565Z,83.32
2023-04-19T09:34:35.224Z,82.93
2023-04-19T09:37:25.025Z,82.77
2023-04-19T09:39:54.036Z,82.87
2023-04-19T09:42:38.432Z,82.87
2023-04-19T09:45:28.362Z,82.52
2023-04-19T09:48:10.012Z,82.37
2023-04-19T09:50:57.374Z,82.25
2023-04-19T09:53:35.462Z,82.23
2023-04-19T09:56:13.013Z,82.37
2023-04-19T09:58:52.574Z,82.34
2023-04-19T10:01:26.872Z,82.54
2023-04-19T10:03:59.220Z,82.31
2023-04-19T10:07:06.694Z,82.40
2023-04-19T10:09:29.991Z,82.50
2023-04-19T10:12:06.628Z,82.50
2023-04-19T10:18:05.779Z,83.26
2023-04-19T10:20:51.468Z,83.46
2023-04-19T10:23:23.129Z,83.33
2023-04-19T10:25:59.611Z,83.62
2023-04-19T10:28:31.670Z,83.72
2023-04-19T10:31:02.641Z,84.15
2023-04-19T10:33:37.630Z,84.60
2023-04-19T10:36:10.529Z,84.82
2023-04-19T10:38:51.554Z,85.14
2023-04-19T10:41:20.097Z,85.28
2023-04-19T10:43:58.173Z,85.20
2023-04-19T10:46:29.137Z,85.59
2023-04-19T10:49:00.292Z,85.81
2023-04-19T10:51:44.379Z,85.70
2023-04-19T10:54:32.491Z,85.66
2023-04-19T10:57:07.342Z,85.81
2023-04-19T10:59:37.985Z,86.17
2023-04-19T11:16:01.889Z,85.87
2023-04-19T11:18:31.318Z,85.61
2023-04-19T11:21:01.284Z,85.43
2023-04-19T11:23:30.497Z,85.22
2023-04-19T11:26:00.527Z,85.54
2023-04-19T11:28:38.822Z,85.67
2023-04-19T11:34:41.603Z,85.91
2023-04-19T11:37:13.323Z,86.08
2023-04-19T11:39:52.628Z,86.41
2023-04-19T11:42:22.356Z,86.33
2023-04-19T11:44:59.463Z,86.20
2023-04-19T11:47:30.305Z,85.90
2023-04-19T11:50:36.566Z,86.03
2023-04-19T11:53:32.470Z,86.19
2023-04-19T11:56:12.159Z,86.18
2023-04-19T11:58:52.376Z,86.27
2023-04-19T12:01:22.192Z,86.29
2023-04-19T12:03:53.045Z,86.23
2023-04-19T12:06:34.348Z,86.46
2023-04-19T12:09:12.270Z,86.37
2023-04-19T12:11:45.902Z,86.34
2023-04-19T12:14:21.524Z,86.52
2023-04-19T12:17:12.168Z,86.72
2023-04-19T12:19:52.177Z,87.03
2023-04-19T12:22:23.939Z,87.23
2023-04-19T12:24:54.513Z,87.40
2023-04-19T12:27:25.663Z,87.46
2023-04-19T12:29:54.995Z,87.23
2023-04-19T12:32:25.215Z,87.22
2023-04-19T12:34:54.027Z,87.27
2023-04-19T12:37:22.588Z,87.41
2023-04-19T12:39:51.678Z,87.39
2023-04-19T12:42:20.066Z,87.50
2023-04-19T12:44:48.934Z,87.48
2023-04-19T12:47:19.019Z,87.48
2023-04-19T12:49:47.636Z,87.72
2023-04-19T12:52:16.065Z,87.79
2023-04-19T12:54:44.652Z,87.82
2023-04-19T12:57:14.844Z,87.89
2023-04-19T12:59:43.523Z,88.10
2023-04-19T13:02:12.387Z,88.23
2023-04-19T13:04:42.308Z,88.16
2023-04-19T13:07:12.230Z,88.22
2023-04-19T13:09:40.915Z,88.30
2023-04-19T13:12:09.466Z,88.42
2023-04-19T13:14:37.885Z,88.33
2023-04-19T13:17:06.886Z,88.35
2023-04-19T13:19:35.279Z,88.51
2023-04-19T13:22:03.731Z,88.59
2023-04-19T13:24:32.234Z,88.43
2023-04-19T13:27:02.101Z,88.45
2023-04-19T13:29:31.878Z,88.51
2023-04-19T13:32:00.360Z,88.59
2023-04-19T13:34:29.735Z,88.55
2023-04-19T13:37:01.136Z,88.55
2023-04-19T13:39:29.600Z,88.75
2023-04-19T13:41:59.682Z,89.08
2023-04-19T13:44:29.461Z,89.15
2023-04-19T13:46:58.980Z,89.02
2023-04-19T13:49:27.861Z,89.14
2023-04-19T13:51:56.375Z,88.89
2023-04-19T13:54:25.992Z,88.94
2023-04-19T13:56:56.470Z,88.89
2023-04-19T13:59:26.707Z,88.88
2023-04-19T14:01:55.982Z,89.02
2023-04-19T14:04:25.032Z,88.83
2023-04-19T14:06:53.765Z,88.94
2023-04-19T14:09:23.628Z,89.00
2023-04-19T14:11:52.161Z,88.87
2023-04-19T14:14:21.245Z,88.90
2023-04-19T14:16:49.727Z,88.91
2023-04-19T14:19:46.221Z,88.88
2023-04-19T14:22:17.252Z,89.01
2023-04-19T14:24:46.354Z,88.94
2023-04-19T14:27:14.907Z,88.51
2023-04-19T14:29:43.297Z,88.34
2023-04-19T14:32:24.952Z,88.27
2023-04-19T14:34:55.905Z,88.26
2023-04-19T14:37:24.798Z,88.35
2023-04-19T14:39:53.403Z,88.84
2023-04-19T14:42:23.051Z,88.94
2023-04-19T14:44:52.564Z,88.70
2023-04-19T14:47:21.793Z,88.60
2023-04-19T14:49:50.656Z,88.78
2023-04-19T14:52:19.186Z,88.46
2023-04-19T14:54:47.669Z,88.33
2023-04-19T14:57:16.317Z,88.19
2023-04-19T14:59:45.130Z,88.19
2023-04-19T15:02:13.887Z,88.31
2023-04-19T15:04:42.945Z,88.35
2023-04-19T15:07:11.567Z,88.06
2023-04-19T15:09:40.859Z,87.80
2023-04-19T15:12:09.324Z,87.65
2023-04-19T15:14:39.158Z,87.51
2023-04-19T15:17:07.964Z,87.32
2023-04-19T15:19:36.583Z,86.95
2023-04-19T15:22:05.324Z,86.77
2023-04-19T15:24:35.661Z,86.63
2023-04-19T15:27:04.350Z,86.60
2023-04-19T15:29:32.792Z,86.57
2023-04-19T15:32:02.575Z,86.37
2023-04-19T15:34:30.972Z,86.34
2023-04-19T15:36:59.458Z,86.45
2023-04-19T15:39:28.601Z,86.33
2023-04-19T15:41:57.266Z,86.34
2023-04-19T15:44:26.953Z,86.08
2023-04-19T15:46:56.342Z,86.20
2023-04-19T15:49:26.601Z,86.04
2023-04-19T15:51:56.173Z,85.98
2023-04-19T15:54:24.529Z,85.88
2023-04-19T15:56:53.066Z,85.89
2023-04-19T15:59:22.138Z,85.83
2023-04-19T16:01:52.165Z,85.68
2023-04-19T16:04:21.741Z,85.81
2023-04-19T16:06:51.258Z,85.54
2023-04-19T16:09:19.572Z,85.43
2023-04-19T16:11:48.361Z,85.37
2023-04-19T16:14:16.770Z,85.27
2023-04-19T16:16:45.517Z,85.24
2023-04-19T16:19:14.061Z,85.30
2023-04-19T16:21:43.803Z,85.52
2023-04-19T16:24:12.747Z,85.64
2023-04-19T16:26:41.320Z,85.67
2023-04-19T16:29:09.724Z,85.75
2023-04-19T16:31:38.107Z,85.58
2023-04-19T16:34:06.481Z,85.63
2023-04-19T16:36:34.890Z,85.79
2023-04-19T16:39:03.518Z,85.61
2023-04-19T16:41:31.870Z,85.61
2023-04-19T16:44:00.143Z,85.53
2023-04-19T16:46:28.765Z,85.34
2023-04-19T16:48:58.930Z,85.45
2023-04-19T16:51:28.343Z,85.37
2023-04-19T16:53:56.738Z,85.33
2023-04-19T16:56:25.180Z,85.27
2023-04-19T16:58:56.374Z,85.44
2023-04-19T17:01:24.984Z,85.50
2023-04-19T17:03:53.690Z,85.22
2023-04-19T17:06:22.727Z,85.03
2023-04-19T17:08:51.502Z,85.18
2023-04-19T17:11:20.750Z,85.05
2023-04-19T17:13:49.074Z,85.10
2023-04-19T17:16:17.595Z,85.24
2023-04-19T17:18:45.984Z,85.29
2023-04-19T17:21:16.104Z,85.23
2023-04-19T17:23:46.131Z,85.14
2023-04-19T17:26:16.089Z,84.96
2023-04-19T17:28:44.414Z,84.98
2023-04-19T17:31:12.895Z,84.98
2023-04-19T17:33:41.472Z,84.92
2023-04-19T17:36:09.940Z,85.04
2023-04-19T17:38:38.430Z,85.12
2023-04-19T17:41:08.649Z,85.18
2023-04-19T17:43:37.126Z,85.11
2023-04-19T17:46:05.767Z,85.11
2023-04-19T17:48:34.879Z,85.13
2023-04-19T17:51:03.431Z,85.27
2023-04-19T17:53:31.983Z,85.19
2023-04-19T17:56:00.472Z,85.17
2023-04-19T17:58:28.912Z,85.16
2023-04-19T18:00:57.592Z,85.34
2023-04-19T18:03:26.261Z,85.36
2023-04-19T18:05:54.953Z,85.29
2023-04-19T18:08:23.382Z,85.34
2023-04-19T18:10:52.646Z,85.46
2023-04-19T18:13:21.713Z,85.58
2023-04-19T18:15:50.372Z,85.61
2023-04-19T18:18:18.819Z,85.76
2023-04-19T18:20:47.142Z,85.74
2023-04-19T18:23:15.845Z,85.89
2023-04-19T18:25:44.192Z,86.03
2023-04-19T18:28:12.524Z,85.96
2023-04-19T18:30:41.188Z,85.83
2023-04-19T18:33:09.688Z,85.91
2023-04-19T18:35:38.213Z,85.95
2023-04-19T18:38:06.822Z,86.16
2023-04-19T18:40:35.306Z,86.29
2023-04-19T18:43:03.852Z,86.31
2023-04-19T18:45:33.251Z,86.39
2023-04-19T18:48:01.878Z,86.57
2023-04-19T18:50:31.216Z,86.52
2023-04-19T18:52:59.788Z,86.72
2023-04-19T18:55:29.332Z,86.80
2023-04-19T18:57:57.728Z,86.69
2023-04-19T19:00:26.155Z,86.67
2023-04-19T19:02:55.368Z,86.84
2023-04-19T19:05:24.373Z,86.83
2023-04-19T19:07:53.127Z,86.98
2023-04-19T19:10:22.762Z,87.05
2023-04-19T19:13:02.474Z,87.02
2023-04-19T19:15:30.821Z,86.92
2023-04-19T19:17:59.503Z,86.92
2023-04-19T19:20:28.095Z,86.73
2023-04-19T19:22:56.640Z,86.87
2023-04-19T19:25:25.221Z,86.98
2023-04-19T19:30:27.717Z,86.96
2023-04-19T19:32:56.440Z,86.96
2023-04-19T19:35:25.326Z,86.90
2023-04-19T19:37:53.930Z,86.89
2023-04-19T19:40:23.107Z,87.08
2023-04-19T19:42:51.536Z,87.28
2023-04-19T19:45:20.801Z,87.24
2023-04-19T19:47:50.444Z,87.32
2023-04-19T19:52:51.848Z,87.24
2023-04-19T19:55:20.258Z,87.32
2023-04-19T19:58:23.671Z,87.38
2023-04-19T20:00:45.931Z,87.47
2023-04-19T20:03:28.344Z,87.58
2023-04-19T20:06:17.795Z,87.65
2023-04-19T20:08:50.346Z,87.69
2023-04-19T20:11:18.809Z,87.72
2023-04-19T20:13:47.302Z,87.62
2023-04-19T20:16:18.306Z,87.73
2023-04-19T20:18:49.343Z,87.73
2023-04-19T20:21:19.529Z,87.96
2023-04-19T20:23:47.957Z,87.92
2023-04-19T20:26:16.347Z,87.80
2023-04-19T20:28:44.668Z,87.83
2023-04-19T20:31:13.072Z,87.97
2023-04-19T20:33:41.399Z,88.11
2023-04-19T20:36:09.929Z,88.03
2023-04-19T20:38:38.380Z,88.15
2023-04-19T20:41:06.756Z,88.45
2023-04-19T20:43:35.084Z,88.52
2023-04-19T21:11:15.080Z,90.03
2023-04-19T21:13:46.672Z,90.11
2023-04-19T21:16:15.248Z,90.24
2023-04-19T21:18:43.645Z,90.17
2023-04-19T21:21:12.181Z,90.22
2023-04-19T21:23:40.570Z,90.18
2023-04-19T21:26:09.635Z,90.41
2023-04-19T21:28:38.061Z,90.54
2023-04-19T21:31:06.543Z,90.61
2023-04-19T21:33:34.948Z,90.72
2023-04-19T21:36:03.596Z,90.75
2023-04-19T21:38:31.977Z,90.85
2023-04-19T21:41:00.667Z,90.81
2023-04-19T21:43:31.571Z,90.76
2023-04-19T21:46:01.844Z,90.71
2023-04-19T21:48:31.271Z,90.83
2023-04-19T21:51:01.598Z,90.88
2023-04-19T21:53:31.256Z,91.03
2023-04-19T21:55:59.802Z,91.17
2023-04-19T21:58:28.222Z,91.24
2023-04-19T22:00:56.652Z,91.33
2023-04-19T22:03:25.324Z,91.39
2023-04-19T22:05:54.385Z,91.54
2023-04-19T22:08:22.887Z,91.65
2023-04-19T22:10:51.283Z,91.61
2023-04-19T22:13:21.549Z,91.58
2023-04-19T22:15:50.650Z,91.55
2023-04-19T22:18:19.256Z,91.55
2023-04-19T22:20:49.887Z,91.63
2023-04-19T22:23:18.210Z,91.65
2023-04-19T22:25:46.578Z,91.77
2023-04-19T22:28:15.009Z,91.91
2023-04-19T22:30:43.491Z,91.86
2023-04-19T22:33:11.915Z,91.95
2023-04-19T22:35:40.320Z,91.90
2023-04-19T22:38:08.734Z,91.97
2023-04-19T22:40:37.452Z,92.13
2023-04-19T22:43:05.802Z,92.01
2023-04-19T22:45:34.221Z,92.09
2023-04-19T22:48:03.354Z,92.19
2023-04-19T22:50:31.975Z,91.97
2023-04-19T22:53:00.546Z,91.98
2023-04-19T22:55:29.001Z,92.06
2023-04-19T22:57:57.385Z,92.05
2023-04-19T23:00:26.581Z,92.07
2023-04-19T23:02:55.349Z,92.20
2023-04-19T23:05:27.588Z,92.13
2023-04-19T23:07:58.790Z,92.11
2023-04-19T23:10:27.611Z,92.18
2023-04-19T23:12:56.400Z,92.22
2023-04-19T23:15:25.234Z,92.29
2023-04-19T23:17:53.585Z,92.20
2023-04-19T23:20:22.336Z,92.10
2023-04-19T23:22:50.824Z,91.99
2023-04-19T23:25:19.225Z,91.96
2023-04-19T23:27:49.889Z,91.88
2023-04-19T23:30:18.976Z,91.98
2023-04-19T23:32:47.486Z,91.91
2023-04-19T23:35:16.037Z,91.96
2023-04-19T23:37:44.398Z,91.96
2023-04-19T23:40:12.842Z,91.96
2023-04-19T23:42:41.216Z,92.24
2023-04-19T23:45:10.316Z,92.35
2023-04-19T23:47:38.757Z,92.49
2023-04-19T23:50:08.230Z,92.43
2023-04-19T23:52:36.698Z,92.57
2023-04-19T23:55:05.572Z,92.74
2023-04-19T23:57:35.763Z,92.59
